createdAt,value
2022-09-21T00:01:28.977Z,0.70
2022-09-21T00:03:59.003Z,0.50
2022-09-21T00:06:29.060Z,0.57
2022-09-21T00:08:58.962Z,0.40
2022-09-21T00:11:29.658Z,0.43
2022-09-21T00:14:01.046Z,0.50
2022-09-21T00:16:30.246Z,0.67
2022-09-21T00:18:58.643Z,0.50
2022-09-21T00:21:28.386Z,0.40
2022-09-21T00:23:59.424Z,0.43
2022-09-21T00:26:28.901Z,0.40
2022-09-21T00:28:58.927Z,0.70
2022-09-21T00:31:28.881Z,0.80
2022-09-21T00:33:58.467Z,0.40
2022-09-21T00:36:27.656Z,0.50
2022-09-21T00:38:59.818Z,0.40
2022-09-21T00:41:29.085Z,0.50
2022-09-21T00:44:27.299Z,0.57
2022-09-21T00:46:58.107Z,0.40
2022-09-21T00:49:28.687Z,0.50
2022-09-21T00:52:00.369Z,0.50
2022-09-21T00:54:33.843Z,0.40
2022-09-21T00:57:03.146Z,0.60
2022-09-21T00:59:33.528Z,0.60
2022-09-21T01:02:02.364Z,1.13
2022-09-21T01:04:31.766Z,0.43
2022-09-21T01:07:04.202Z,0.47
2022-09-21T01:09:34.594Z,0.67
2022-09-21T01:12:17.961Z,0.60
2022-09-21T01:15:07.215Z,0.60
2022-09-21T01:17:44.405Z,0.33
2022-09-21T01:20:29.339Z,0.83
2022-09-21T01:23:11.209Z,0.60
2022-09-21T01:25:53.257Z,0.60
2022-09-21T01:28:30.532Z,0.43
2022-09-21T01:31:06.152Z,0.43
2022-09-21T01:33:40.826Z,0.40
2022-09-21T01:36:15.165Z,0.40
2022-09-21T01:38:46.594Z,0.40
2022-09-21T01:41:17.528Z,0.40
2022-09-21T01:43:50.460Z,0.50
2022-09-21T01:46:23.213Z,0.60
2022-09-21T01:48:56.048Z,0.50
2022-09-21T01:51:29.665Z,0.50
2022-09-21T01:54:03.275Z,0.43
2022-09-21T01:56:37.303Z,0.70
2022-09-21T01:59:18.071Z,1.30
2022-09-21T02:01:53.379Z,0.67
2022-09-21T02:04:21.817Z,0.50
2022-09-21T02:06:52.176Z,0.50
2022-09-21T02:09:21.039Z,0.40
2022-09-21T02:11:49.235Z,0.70
2022-09-21T02:14:21.606Z,0.50
2022-09-21T02:17:02.657Z,0.60
2022-09-21T02:19:38.284Z,0.60
2022-09-21T02:22:12.892Z,0.50
2022-09-21T02:24:43.699Z,0.60
2022-09-21T02:27:25.608Z,0.50
2022-09-21T02:30:03.443Z,0.40
2022-09-21T02:32:39.597Z,0.70
2022-09-21T02:35:15.848Z,0.50
2022-09-21T02:37:52.108Z,0.53
2022-09-21T02:40:26.867Z,0.60
2022-09-21T02:42:58.229Z,0.50
2022-09-21T02:45:29.552Z,0.50
2022-09-21T02:48:04.600Z,0.40
2022-09-21T02:50:37.822Z,0.70
2022-09-21T02:53:08.895Z,0.60
2022-09-21T02:55:37.433Z,0.70
2022-09-21T02:58:09.109Z,0.50
2022-09-21T03:00:38.192Z,0.70
2022-09-21T03:03:18.418Z,0.50
2022-09-21T03:05:49.065Z,0.90
2022-09-21T03:08:17.379Z,0.60
2022-09-21T03:10:46.296Z,0.60
2022-09-21T03:13:15.214Z,0.53
2022-09-21T03:15:43.990Z,0.40
2022-09-21T03:18:13.696Z,0.47
2022-09-21T03:20:47.135Z,0.50
2022-09-21T03:23:16.024Z,0.73
2022-09-21T03:25:45.680Z,0.50
2022-09-21T03:28:14.745Z,0.40
2022-09-21T03:30:44.146Z,0.50
2022-09-21T03:33:12.996Z,0.83
2022-09-21T03:35:42.840Z,0.50
2022-09-21T03:38:11.348Z,0.60
2022-09-21T03:40:39.633Z,0.50
2022-09-21T03:43:07.933Z,0.50
2022-09-21T03:45:36.204Z,0.53
2022-09-21T03:48:04.506Z,0.50
2022-09-21T03:50:32.718Z,0.57
2022-09-21T03:53:02.410Z,0.40
2022-09-21T03:55:31.723Z,0.60
2022-09-21T03:58:00.065Z,0.63
2022-09-21T04:00:28.359Z,0.40
2022-09-21T04:02:56.960Z,0.67
2022-09-21T04:05:25.496Z,0.47
2022-09-21T04:07:55.999Z,0.50
2022-09-21T04:10:29.356Z,0.50
2022-09-21T04:12:59.404Z,0.50
2022-09-21T04:15:27.607Z,0.60
2022-09-21T04:17:55.913Z,0.70
2022-09-21T04:20:24.731Z,0.43
2022-09-21T04:22:53.076Z,0.80
2022-09-21T04:25:21.716Z,0.57
2022-09-21T04:27:52.322Z,0.60
2022-09-21T04:30:20.627Z,1.27
2022-09-21T04:32:48.913Z,0.60
2022-09-21T04:35:17.315Z,0.60
2022-09-21T04:37:45.618Z,0.77
2022-09-21T04:40:13.946Z,0.80
2022-09-21T04:42:42.160Z,0.50
2022-09-21T04:45:12.649Z,0.40
2022-09-21T04:47:40.969Z,0.60
2022-09-21T04:50:10.080Z,0.53
2022-09-21T04:52:38.412Z,0.60
2022-09-21T04:55:07.584Z,0.30
2022-09-21T04:57:36.580Z,0.40
2022-09-21T05:00:05.711Z,0.70
2022-09-21T05:02:35.387Z,0.70
2022-09-21T05:05:03.647Z,0.60
2022-09-21T05:07:31.868Z,0.60
2022-09-21T05:10:05.151Z,0.60
2022-09-21T05:12:37.540Z,0.80
2022-09-21T05:15:09.056Z,0.50
2022-09-21T05:17:38.790Z,0.63
2022-09-21T05:20:07.989Z,0.57
2022-09-21T05:22:36.268Z,0.60
2022-09-21T05:25:05.008Z,0.47
2022-09-21T05:27:33.260Z,0.50
2022-09-21T05:30:02.184Z,0.60
2022-09-21T05:32:43.884Z,0.80
2022-09-21T05:35:19.935Z,0.50
2022-09-21T05:37:56.608Z,0.70
2022-09-21T05:40:25.672Z,0.50
2022-09-21T05:42:54.421Z,0.60
2022-09-21T05:45:23.400Z,0.33
2022-09-21T05:48:01.210Z,0.80
2022-09-21T05:50:47.669Z,0.50
2022-09-21T05:53:33.977Z,0.50
2022-09-21T05:56:08.218Z,0.50
2022-09-21T05:58:44.864Z,0.50
2022-09-21T06:01:26.339Z,0.50
2022-09-21T06:03:58.084Z,0.50
2022-09-21T06:06:26.474Z,0.63
2022-09-21T06:08:54.615Z,0.63
2022-09-21T06:11:23.121Z,0.60
2022-09-21T06:13:51.325Z,0.60
2022-09-21T06:16:19.671Z,0.53
2022-09-21T06:18:47.895Z,0.97
2022-09-21T06:21:18.480Z,0.50
2022-09-21T06:23:46.827Z,0.60
2022-09-21T06:26:15.043Z,0.40
2022-09-21T06:28:43.305Z,0.87
2022-09-21T06:31:11.540Z,0.60
2022-09-21T06:33:40.049Z,0.90
2022-09-21T06:36:08.484Z,0.63
2022-09-21T06:38:38.160Z,0.50
2022-09-21T06:41:06.953Z,0.50
2022-09-21T06:43:35.177Z,0.57
2022-09-21T06:46:04.265Z,0.70
2022-09-21T06:48:35.513Z,0.50
2022-09-21T06:51:05.509Z,0.70
2022-09-21T06:53:37.260Z,0.40
2022-09-21T06:56:08.643Z,0.77
2022-09-21T06:58:37.941Z,0.50
2022-09-21T07:01:08.709Z,0.30
2022-09-21T07:03:37.815Z,0.40
2022-09-21T07:06:07.012Z,0.73
2022-09-21T07:11:27.580Z,0.30
2022-09-21T07:13:56.063Z,0.57
2022-09-21T07:16:24.622Z,0.63
2022-09-21T07:18:52.874Z,0.40
2022-09-21T07:21:21.231Z,0.40
2022-09-21T07:23:50.956Z,0.43
2022-09-21T07:26:19.658Z,0.30
2022-09-21T07:28:48.702Z,0.53
2022-09-21T07:31:18.647Z,0.37
2022-09-21T07:33:47.747Z,0.57
2022-09-21T07:36:17.872Z,0.37
2022-09-21T07:38:46.385Z,0.97
2022-09-21T07:41:16.546Z,0.30
2022-09-21T07:43:44.748Z,0.40
2022-09-21T07:46:15.936Z,0.50
2022-09-21T07:48:44.481Z,0.40
2022-09-21T07:51:14.483Z,0.40
2022-09-21T07:53:45.460Z,0.40
2022-09-21T07:56:17.079Z,0.40
2022-09-21T07:59:03.053Z,0.40
2022-09-21T08:01:32.242Z,0.50
2022-09-21T08:04:01.337Z,0.30
2022-09-21T08:06:32.972Z,0.33
2022-09-21T08:09:01.544Z,0.50
2022-09-21T08:11:33.735Z,0.23
2022-09-21T08:14:03.950Z,0.50
2022-09-21T08:16:34.224Z,0.37
2022-09-21T08:19:03.229Z,0.50
2022-09-21T08:21:31.501Z,0.40
2022-09-21T08:23:59.744Z,0.60
2022-09-21T08:26:28.094Z,0.40
2022-09-21T08:28:59.017Z,0.30
2022-09-21T08:31:27.949Z,0.37
2022-09-21T08:33:57.401Z,0.40
2022-09-21T08:36:25.920Z,0.50
2022-09-21T08:38:55.234Z,0.40
2022-09-21T08:41:26.499Z,0.63
2022-09-21T08:44:00.998Z,0.30
2022-09-21T08:46:31.039Z,0.50
2022-09-21T08:49:07.126Z,0.40
2022-09-21T08:51:39.550Z,0.40
2022-09-21T08:54:15.220Z,0.43
2022-09-21T08:57:03.965Z,0.50
2022-09-21T08:59:33.256Z,0.50
2022-09-21T09:02:16.267Z,0.60
2022-09-21T09:04:57.165Z,0.43
2022-09-21T09:07:43.697Z,0.40
2022-09-21T09:10:29.672Z,0.30
2022-09-21T09:13:14.272Z,0.40
2022-09-21T09:15:57.083Z,0.40
2022-09-21T09:18:30.770Z,0.30
2022-09-21T09:21:04.603Z,0.37
2022-09-21T09:23:36.174Z,0.50
2022-09-21T09:26:10.132Z,0.70
2022-09-21T09:28:44.950Z,0.30
2022-09-21T09:31:20.506Z,0.30
2022-09-21T09:33:55.596Z,0.30
2022-09-21T09:36:53.927Z,0.30
2022-09-21T09:39:22.570Z,0.40
2022-09-21T09:42:20.051Z,0.40
2022-09-21T09:45:20.746Z,0.50
2022-09-21T09:48:05.344Z,0.30
2022-09-21T09:50:36.417Z,0.37
2022-09-21T09:53:08.421Z,0.30
2022-09-21T09:55:40.212Z,0.40
2022-09-21T09:58:21.297Z,0.30
2022-09-21T10:00:53.306Z,0.30
2022-09-21T10:03:24.567Z,0.37
2022-09-21T10:05:54.294Z,0.40
2022-09-21T10:08:42.157Z,0.40
2022-09-21T10:11:12.331Z,0.40
2022-09-21T10:13:43.218Z,0.40
2022-09-21T10:16:16.944Z,0.40
2022-09-21T10:18:52.621Z,0.50
2022-09-21T10:21:23.819Z,0.47
2022-09-21T10:23:54.400Z,0.33
2022-09-21T10:26:23.834Z,0.30
2022-09-21T10:29:00.751Z,0.30
2022-09-21T10:31:30.510Z,0.40
2022-09-21T10:34:14.425Z,0.40
2022-09-21T10:36:50.136Z,0.73
2022-09-21T10:39:28.280Z,0.43
2022-09-21T10:42:00.832Z,0.40
2022-09-21T10:44:35.877Z,0.43
2022-09-21T10:47:17.065Z,0.30
2022-09-21T10:49:51.406Z,0.60
2022-09-21T10:52:23.424Z,0.33
2022-09-21T10:54:56.479Z,0.43
2022-09-21T10:57:27.135Z,0.33
2022-09-21T10:59:57.384Z,0.50
2022-09-21T11:02:46.699Z,0.50
2022-09-21T11:05:18.800Z,0.40
2022-09-21T11:07:53.475Z,0.50
2022-09-21T11:10:33.982Z,0.40
2022-09-21T11:13:18.571Z,0.52
2022-09-21T11:15:53.418Z,0.50
2022-09-21T11:18:27.813Z,0.50
2022-09-21T11:21:08.376Z,0.60
2022-09-21T11:23:49.907Z,0.75
2022-09-21T11:26:26.166Z,0.50
2022-09-21T11:29:01.293Z,0.50
2022-09-21T11:31:50.680Z,0.50
2022-09-21T11:34:40.393Z,0.30
2022-09-21T11:37:19.590Z,0.40
2022-09-21T11:40:04.521Z,0.47
2022-09-21T11:42:50.182Z,0.60
2022-09-21T11:45:48.442Z,0.40
2022-09-21T11:48:28.875Z,0.40
2022-09-21T11:51:09.643Z,0.50
2022-09-21T11:53:54.241Z,0.50
2022-09-21T11:56:44.330Z,0.30
2022-09-21T11:59:42.480Z,0.45
2022-09-21T12:02:43.558Z,0.57
2022-09-21T12:05:21.419Z,0.80
2022-09-21T12:08:07.939Z,0.40
2022-09-21T12:10:48.051Z,0.47
2022-09-21T12:13:26.096Z,0.50
2022-09-21T12:16:03.061Z,0.40
2022-09-21T12:18:36.457Z,0.40
2022-09-21T12:21:13.949Z,0.40
2022-09-21T12:23:45.028Z,0.52
2022-09-21T12:26:18.817Z,0.40
2022-09-21T12:28:52.543Z,0.47
2022-09-21T12:31:27.615Z,0.50
2022-09-21T12:34:00.324Z,0.47
2022-09-21T12:36:36.998Z,0.50
2022-09-21T12:39:14.550Z,0.50
2022-09-21T12:41:52.375Z,0.57
2022-09-21T12:44:27.272Z,0.52
2022-09-21T12:47:09.495Z,0.30
2022-09-21T12:49:43.432Z,0.40
2022-09-21T12:52:22.498Z,0.60
2022-09-21T12:54:59.303Z,0.50
2022-09-21T12:57:58.785Z,0.43
2022-09-21T13:00:36.341Z,0.70
2022-09-21T13:03:12.772Z,0.40
2022-09-21T13:05:56.748Z,0.65
2022-09-21T13:08:29.831Z,0.68
2022-09-21T13:11:04.673Z,0.60
2022-09-21T13:13:38.598Z,0.38
2022-09-21T13:16:08.462Z,0.80
2022-09-21T13:18:39.266Z,0.60
2022-09-21T13:21:18.689Z,0.60
2022-09-21T13:23:54.633Z,0.60
2022-09-21T13:26:34.063Z,0.50
2022-09-21T13:29:08.101Z,0.50
2022-09-21T13:32:00.446Z,0.55
2022-09-21T13:34:31.355Z,0.52
2022-09-21T13:37:30.905Z,0.80
2022-09-21T13:40:41.650Z,0.85
2022-09-21T13:43:48.228Z,0.50
2022-09-21T13:46:56.228Z,0.80
2022-09-21T13:49:54.866Z,0.60
2022-09-21T13:52:34.662Z,0.60
2022-09-21T13:55:05.987Z,0.68
2022-09-21T13:57:39.539Z,0.75
2022-09-21T14:00:28.491Z,0.68
2022-09-21T14:03:04.373Z,0.70
2022-09-21T14:05:37.328Z,0.70
2022-09-21T14:08:08.907Z,0.88
2022-09-21T14:10:39.466Z,0.93
2022-09-21T14:13:27.464Z,0.80
2022-09-21T14:15:55.806Z,0.70
2022-09-21T14:18:41.363Z,0.90
2022-09-21T14:21:17.685Z,0.80
2022-09-21T14:24:19.757Z,0.70
2022-09-21T14:26:55.360Z,0.75
2022-09-21T14:29:27.444Z,0.70
2022-09-21T14:31:59.597Z,0.88
2022-09-21T14:34:37.709Z,0.82
2022-09-21T14:37:17.157Z,0.68
2022-09-21T14:39:47.500Z,0.73
2022-09-21T14:42:20.657Z,0.70
2022-09-21T14:44:51.683Z,0.80
2022-09-21T14:47:43.830Z,0.80
2022-09-21T14:50:31.693Z,1.05
2022-09-21T14:53:18.300Z,0.90
2022-09-21T14:56:03.986Z,0.90
2022-09-21T14:58:45.191Z,0.68
2022-09-21T15:01:36.605Z,0.98
2022-09-21T15:04:27.624Z,1.23
2022-09-21T15:07:24.817Z,1.00
2022-09-21T15:10:29.821Z,1.23
2022-09-21T15:13:03.413Z,1.15
2022-09-21T15:15:38.497Z,0.95
2022-09-21T15:18:17.949Z,0.70
2022-09-21T15:20:46.332Z,1.02
2022-09-21T15:23:20.651Z,1.10
2022-09-21T15:25:58.989Z,1.00
2022-09-21T15:28:32.785Z,1.00
2022-09-21T15:31:10.848Z,1.10
2022-09-21T15:33:42.253Z,0.90
2022-09-21T15:36:10.632Z,1.27
2022-09-21T15:38:40.471Z,1.00
2022-09-21T15:41:27.707Z,1.25
2022-09-21T15:44:12.920Z,1.00
2022-09-21T15:46:43.441Z,1.30
2022-09-21T15:49:15.410Z,0.80
2022-09-21T15:51:46.480Z,0.98
2022-09-21T15:54:30.101Z,0.70
2022-09-21T15:56:59.453Z,1.10
2022-09-21T15:59:28.600Z,0.98
2022-09-21T16:01:59.769Z,0.88
2022-09-21T16:04:30.090Z,1.25
2022-09-21T16:07:05.771Z,0.80
2022-09-21T16:09:45.160Z,1.00
2022-09-21T16:12:35.113Z,0.80
2022-09-21T16:15:08.117Z,1.00
2022-09-21T16:17:38.788Z,1.20
2022-09-21T16:20:19.915Z,0.90
2022-09-21T16:22:50.889Z,1.00
2022-09-21T16:25:32.594Z,0.80
2022-09-21T16:28:02.579Z,0.90
2022-09-21T16:30:49.133Z,1.00
2022-09-21T16:33:43.998Z,0.82
2022-09-21T16:36:36.721Z,0.98
2022-09-21T16:39:14.190Z,0.93
2022-09-21T16:41:48.556Z,1.30
2022-09-21T16:44:21.017Z,0.90
2022-09-21T16:46:52.736Z,1.05
2022-09-21T16:49:22.065Z,0.80
2022-09-21T16:51:52.275Z,0.80
2022-09-21T16:54:25.348Z,1.35
2022-09-21T16:56:56.595Z,1.00
2022-09-21T16:59:25.790Z,0.90
2022-09-21T17:01:56.717Z,1.20
2022-09-21T17:04:27.666Z,0.93
2022-09-21T17:06:56.489Z,0.98
2022-09-21T17:09:29.818Z,1.13
2022-09-21T17:12:01.731Z,0.95
2022-09-21T17:14:33.044Z,1.20
2022-09-21T17:17:04.088Z,1.10
2022-09-21T17:19:33.073Z,1.00
2022-09-21T17:22:01.280Z,0.98
2022-09-21T17:24:49.286Z,1.50
2022-09-21T17:27:21.463Z,1.07
2022-09-21T17:29:50.741Z,1.00
2022-09-21T17:32:21.287Z,1.20
2022-09-21T17:34:56.454Z,1.40
2022-09-21T17:37:25.410Z,0.90
2022-09-21T17:39:54.410Z,1.00
2022-09-21T17:42:25.997Z,0.90
2022-09-21T17:45:05.029Z,1.10
2022-09-21T17:47:34.120Z,0.90
2022-09-21T17:50:16.267Z,1.00
2022-09-21T17:53:02.862Z,1.03
2022-09-21T17:55:32.184Z,1.00
2022-09-21T17:58:17.432Z,1.10
2022-09-21T18:00:54.527Z,1.20
2022-09-21T18:03:24.956Z,1.07
2022-09-21T18:05:59.440Z,0.90
2022-09-21T18:08:28.807Z,1.07
2022-09-21T18:11:04.778Z,1.27
2022-09-21T18:13:44.492Z,1.10
2022-09-21T18:16:27.811Z,1.33
2022-09-21T18:19:05.835Z,1.10
2022-09-21T18:21:38.590Z,1.40
2022-09-21T18:24:20.880Z,0.80
2022-09-21T18:26:52.275Z,1.30
2022-09-21T18:29:40.847Z,1.13
2022-09-21T18:32:32.343Z,1.10
2022-09-21T18:35:17.057Z,1.20
2022-09-21T18:37:57.945Z,1.23
2022-09-21T18:40:34.581Z,1.03
2022-09-21T18:43:13.670Z,1.10
2022-09-21T18:45:48.152Z,1.40
2022-09-21T18:48:29.684Z,1.30
2022-09-21T18:51:06.146Z,1.20
2022-09-21T18:53:42.005Z,1.20
2022-09-21T18:56:12.031Z,1.50
2022-09-21T18:58:41.684Z,1.50
2022-09-21T19:01:13.368Z,1.77
2022-09-21T19:03:44.016Z,1.40
2022-09-21T19:06:26.462Z,1.40
2022-09-21T19:09:03.990Z,1.17
2022-09-21T19:11:38.468Z,1.00
2022-09-21T19:14:15.448Z,0.87
2022-09-21T19:17:00.898Z,1.00
2022-09-21T19:19:37.571Z,0.90
2022-09-21T19:22:26.821Z,0.90
2022-09-21T19:25:02.487Z,0.93
2022-09-21T19:27:42.158Z,0.90
2022-09-21T19:30:13.875Z,1.10
2022-09-21T19:32:46.407Z,1.10
2022-09-21T19:35:21.331Z,0.83
2022-09-21T19:37:51.012Z,1.20
2022-09-21T19:40:24.280Z,1.13
2022-09-21T19:43:20.858Z,0.90
2022-09-21T19:46:07.252Z,0.80
2022-09-21T19:48:43.667Z,0.80
2022-09-21T19:51:19.534Z,0.70
2022-09-21T19:54:12.846Z,0.60
2022-09-21T19:57:04.996Z,0.70
2022-09-21T19:59:50.856Z,0.63
2022-09-21T20:02:23.861Z,0.70
2022-09-21T20:04:57.606Z,0.70
2022-09-21T20:07:35.692Z,1.00
2022-09-21T20:10:45.369Z,0.70
2022-09-21T20:13:23.673Z,0.80
2022-09-21T20:16:00.057Z,1.00
2022-09-21T20:18:37.330Z,0.87
2022-09-21T20:21:15.133Z,0.70
2022-09-21T20:23:45.244Z,0.60
2022-09-21T20:26:24.668Z,0.57
2022-09-21T20:28:53.940Z,0.80
2022-09-21T20:31:23.067Z,0.70
2022-09-21T20:33:51.402Z,0.90
2022-09-21T20:36:21.056Z,0.63
2022-09-21T20:38:49.408Z,0.70
2022-09-21T20:41:19.293Z,1.07
2022-09-21T20:43:47.664Z,0.90
2022-09-21T20:46:16.016Z,0.70
2022-09-21T20:48:44.487Z,0.70
2022-09-21T20:51:12.802Z,0.80
2022-09-21T20:53:42.448Z,0.70
2022-09-21T20:56:12.004Z,0.90
2022-09-21T20:58:40.301Z,0.73
2022-09-21T21:01:10.259Z,0.80
2022-09-21T21:03:38.734Z,0.60
2022-09-21T21:06:11.657Z,0.80
2022-09-21T21:08:40.080Z,0.73
2022-09-21T21:11:10.745Z,0.77
2022-09-21T21:13:40.124Z,0.70
2022-09-21T21:16:12.127Z,0.83
2022-09-21T21:18:41.508Z,0.63
2022-09-21T21:21:10.243Z,0.80
2022-09-21T21:23:52.558Z,0.70
2022-09-21T21:26:33.577Z,0.80
2022-09-21T21:29:10.822Z,0.70
2022-09-21T21:31:40.011Z,0.70
2022-09-21T21:34:08.553Z,0.90
2022-09-21T21:36:38.915Z,0.73
2022-09-21T21:39:07.356Z,0.80
2022-09-21T21:41:37.851Z,0.97
2022-09-21T21:44:06.313Z,0.90
2022-09-21T21:46:34.812Z,0.83
2022-09-21T21:49:03.215Z,0.90
2022-09-21T21:51:32.188Z,1.13
2022-09-21T21:54:00.649Z,0.87
2022-09-21T21:56:29.811Z,0.73
2022-09-21T21:58:59.563Z,0.87
2022-09-21T22:01:32.041Z,0.93
2022-09-21T22:04:03.489Z,0.77
2022-09-21T22:06:33.547Z,0.90
2022-09-21T22:09:03.053Z,1.40
2022-09-21T22:11:32.208Z,1.03
2022-09-21T22:14:03.018Z,0.97
2022-09-21T22:16:32.908Z,1.20
2022-09-21T22:19:04.329Z,1.00
2022-09-21T22:21:34.850Z,0.90
2022-09-21T22:24:05.603Z,0.90
2022-09-21T22:26:38.125Z,0.93
2022-09-21T22:29:10.717Z,0.77
2022-09-21T22:31:41.236Z,0.80
2022-09-21T22:34:10.315Z,0.90
2022-09-21T22:36:39.640Z,1.10
2022-09-21T22:39:09.390Z,0.80
2022-09-21T22:41:40.020Z,0.70
2022-09-21T22:44:10.701Z,0.60
2022-09-21T22:46:40.042Z,0.97
2022-09-21T22:49:08.622Z,0.70
2022-09-21T22:51:38.173Z,0.90
2022-09-21T22:54:06.798Z,0.70
2022-09-21T22:56:36.133Z,0.77
2022-09-21T22:59:06.198Z,0.80
2022-09-21T23:01:37.941Z,1.07
2022-09-21T23:04:09.606Z,0.70
2022-09-21T23:06:39.699Z,0.83
2022-09-21T23:09:13.510Z,0.80
2022-09-21T23:11:46.662Z,0.90
2022-09-21T23:14:15.843Z,0.73
2022-09-21T23:16:45.753Z,0.53
2022-09-21T23:19:16.572Z,0.80
2022-09-21T23:21:46.789Z,0.60
2022-09-21T23:24:15.371Z,0.90
2022-09-21T23:26:44.108Z,0.73
2022-09-21T23:29:14.492Z,1.17
2022-09-21T23:31:45.562Z,0.77
2022-09-21T23:34:16.728Z,1.03
2022-09-21T23:36:46.254Z,0.87
2022-09-21T23:39:16.188Z,0.80
2022-09-21T23:41:44.990Z,0.70
2022-09-21T23:44:13.317Z,1.00
2022-09-21T23:46:42.197Z,0.87
2022-09-21T23:49:11.036Z,0.80
2022-09-21T23:51:40.900Z,0.70
2022-09-21T23:54:09.277Z,0.77
2022-09-21T23:56:38.069Z,0.83
2022-09-21T23:59:06.945Z,0.70
